sensor_id;sensor_type;location;lat;lon;timestamp;temperature;humidity
14409;DHT22;7289;50.706;4.992;2023-12-20T00:01:45;6.60;99.90
14409;DHT22;7289;50.706;4.992;2023-12-20T00:04:13;6.50;99.90
14409;DHT22;7289;50.706;4.992;2023-12-20T00:06:42;6.50;99.90
14409;DHT22;7289;50.706;4.992;2023-12-20T00:09:11;6.50;99.90
14409;DHT22;7289;50.706;4.992;2023-12-20T00:11:40;6.40;99.90
14409;DHT22;7289;50.706;4.992;2023-12-20T00:14:09;6.40;99.90
14409;DHT22;7289;50.706;4.992;2023-12-20T00:16:38;6.30;99.90
14409;DHT22;7289;50.706;4.992;2023-12-20T00:19:06;6.40;99.90
14409;DHT22;7289;50.706;4.992;2023-12-20T00:21:35;6.30;99.90
14409;DHT22;7289;50.706;4.992;2023-12-20T00:24:04;6.30;99.90
14409;DHT22;7289;50.706;4.992;2023-12-20T00:26:32;6.30;99.90
14409;DHT22;7289;50.706;4.992;2023-12-20T00:29:02;6.20;99.90
14409;DHT22;7289;50.706;4.992;2023-12-20T00:31:31;6.20;99.90
14409;DHT22;7289;50.706;4.992;2023-12-20T00:33:59;6.20;99.90
14409;DHT22;7289;50.706;4.992;2023-12-20T00:36:28;6.10;99.90
14409;DHT22;7289;50.706;4.992;2023-12-20T00:38:56;6.10;99.90
14409;DHT22;7289;50.706;4.992;2023-12-20T00:41:25;6.00;99.90
14409;DHT22;7289;50.706;4.992;2023-12-20T00:43:53;6.00;99.90
14409;DHT22;7289;50.706;4.992;2023-12-20T00:46:23;5.90;99.90
14409;DHT22;7289;50.706;4.992;2023-12-20T00:48:51;6.00;99.90
14409;DHT22;7289;50.706;4.992;2023-12-20T00:51:20;5.90;99.90
14409;DHT22;7289;50.706;4.992;2023-12-20T00:53:49;5.90;99.90
14409;DHT22;7289;50.706;4.992;2023-12-20T00:56:21;5.90;99.90
14409;DHT22;7289;50.706;4.992;2023-12-20T00:58:50;5.90;99.90
14409;DHT22;7289;50.706;4.992;2023-12-20T01:01:18;5.80;99.90
14409;DHT22;7289;50.706;4.992;2023-12-20T01:03:48;5.90;99.90
14409;DHT22;7289;50.706;4.992;2023-12-20T01:06:18;5.90;99.90
14409;DHT22;7289;50.706;4.992;2023-12-20T01:08:47;5.90;99.90
14409;DHT22;7289;50.706;4.992;2023-12-20T01:11:15;6.00;99.90
14409;DHT22;7289;50.706;4.992;2023-12-20T01:13:44;5.90;99.90
14409;DHT22;7289;50.706;4.992;2023-12-20T01:16:12;5.90;99.90
14409;DHT22;7289;50.706;4.992;2023-12-20T01:18:40;5.80;99.90
14409;DHT22;7289;50.706;4.992;2023-12-20T01:21:10;5.80;99.90
14409;DHT22;7289;50.706;4.992;2023-12-20T01:23:39;5.80;99.90
14409;DHT22;7289;50.706;4.992;2023-12-20T01:26:07;5.80;99.90
14409;DHT22;7289;50.706;4.992;2023-12-20T01:28:35;5.70;99.90
14409;DHT22;7289;50.706;4.992;2023-12-20T01:31:04;5.60;99.90
14409;DHT22;7289;50.706;4.992;2023-12-20T01:33:33;5.60;99.90
14409;DHT22;7289;50.706;4.992;2023-12-20T01:36:01;5.60;99.90
14409;DHT22;7289;50.706;4.992;2023-12-20T01:38:32;5.50;99.90
14409;DHT22;7289;50.706;4.992;2023-12-20T01:41:00;5.40;99.90
14409;DHT22;7289;50.706;4.992;2023-12-20T01:43:29;5.50;99.90
14409;DHT22;7289;50.706;4.992;2023-12-20T01:46:07;5.40;99.90
14409;DHT22;7289;50.706;4.992;2023-12-20T01:48:35;5.40;99.90
14409;DHT22;7289;50.706;4.992;2023-12-20T01:51:05;5.30;99.90
14409;DHT22;7289;50.706;4.992;2023-12-20T01:53:35;5.30;99.90
14409;DHT22;7289;50.706;4.992;2023-12-20T01:56:04;5.20;99.90
14409;DHT22;7289;50.706;4.992;2023-12-20T01:58:33;5.20;99.90
14409;DHT22;7289;50.706;4.992;2023-12-20T02:01:02;5.10;99.90
14409;DHT22;7289;50.706;4.992;2023-12-20T02:03:30;5.20;99.90
14409;DHT22;7289;50.706;4.992;2023-12-20T02:05:59;5.10;99.90
14409;DHT22;7289;50.706;4.992;2023-12-20T02:08:27;5.10;99.90
14409;DHT22;7289;50.706;4.992;2023-12-20T02:10:57;5.10;99.90
14409;DHT22;7289;50.706;4.992;2023-12-20T02:13:26;5.10;99.90
14409;DHT22;7289;50.706;4.992;2023-12-20T02:15:54;5.00;99.90
14409;DHT22;7289;50.706;4.992;2023-12-20T02:18:23;5.10;99.90
14409;DHT22;7289;50.706;4.992;2023-12-20T02:20:52;5.10;99.90
14409;DHT22;7289;50.706;4.992;2023-12-20T02:23:22;5.10;99.90
14409;DHT22;7289;50.706;4.992;2023-12-20T02:25:50;5.10;99.90
14409;DHT22;7289;50.706;4.992;2023-12-20T02:28:18;5.10;99.90
14409;DHT22;7289;50.706;4.992;2023-12-20T02:30:48;5.10;99.90
14409;DHT22;7289;50.706;4.992;2023-12-20T02:33:17;5.10;99.90
14409;DHT22;7289;50.706;4.992;2023-12-20T02:35:46;5.10;99.90
14409;DHT22;7289;50.706;4.992;2023-12-20T02:38:14;5.00;99.90
14409;DHT22;7289;50.706;4.992;2023-12-20T02:40:44;5.00;99.90
14409;DHT22;7289;50.706;4.992;2023-12-20T02:43:16;5.00;99.90
14409;DHT22;7289;50.706;4.992;2023-12-20T02:45:45;5.00;99.90
14409;DHT22;7289;50.706;4.992;2023-12-20T02:48:13;5.00;99.90
14409;DHT22;7289;50.706;4.992;2023-12-20T02:50:42;5.00;99.90
14409;DHT22;7289;50.706;4.992;2023-12-20T02:53:10;5.00;99.90
14409;DHT22;7289;50.706;4.992;2023-12-20T02:55:38;5.00;99.90
14409;DHT22;7289;50.706;4.992;2023-12-20T02:58:08;5.00;99.90
14409;DHT22;7289;50.706;4.992;2023-12-20T03:00:36;4.90;99.90
14409;DHT22;7289;50.706;4.992;2023-12-20T03:03:05;4.90;99.90
14409;DHT22;7289;50.706;4.992;2023-12-20T03:05:33;4.90;99.90
14409;DHT22;7289;50.706;4.992;2023-12-20T03:08:02;4.90;99.90
14409;DHT22;7289;50.706;4.992;2023-12-20T03:10:30;4.90;99.90
14409;DHT22;7289;50.706;4.992;2023-12-20T03:12:58;4.90;99.90
14409;DHT22;7289;50.706;4.992;2023-12-20T03:15:28;5.10;99.90
14409;DHT22;7289;50.706;4.992;2023-12-20T03:17:57;5.20;99.90
14409;DHT22;7289;50.706;4.992;2023-12-20T03:20:26;5.20;99.90
14409;DHT22;7289;50.706;4.992;2023-12-20T03:22:54;5.30;99.90
14409;DHT22;7289;50.706;4.992;2023-12-20T03:25:23;5.40;99.90
14409;DHT22;7289;50.706;4.992;2023-12-20T03:27:51;5.40;99.90
14409;DHT22;7289;50.706;4.992;2023-12-20T03:30:20;5.50;99.90
14409;DHT22;7289;50.706;4.992;2023-12-20T03:32:50;5.50;99.90
14409;DHT22;7289;50.706;4.992;2023-12-20T03:35:18;5.50;99.90
14409;DHT22;7289;50.706;4.992;2023-12-20T03:37:46;5.50;99.90
14409;DHT22;7289;50.706;4.992;2023-12-20T03:40:15;5.50;99.90
14409;DHT22;7289;50.706;4.992;2023-12-20T03:42:44;5.60;99.90
14409;DHT22;7289;50.706;4.992;2023-12-20T03:45:12;5.50;99.90
14409;DHT22;7289;50.706;4.992;2023-12-20T03:47:40;5.50;99.90
14409;DHT22;7289;50.706;4.992;2023-12-20T03:50:10;5.40;99.90
14409;DHT22;7289;50.706;4.992;2023-12-20T03:52:39;5.40;99.90
14409;DHT22;7289;50.706;4.992;2023-12-20T03:55:07;5.40;99.90
14409;DHT22;7289;50.706;4.992;2023-12-20T03:57:36;5.30;99.90
14409;DHT22;7289;50.706;4.992;2023-12-20T04:00:05;5.30;99.90
14409;DHT22;7289;50.706;4.992;2023-12-20T04:02:41;5.20;99.90
14409;DHT22;7289;50.706;4.992;2023-12-20T04:05:11;5.20;99.90
14409;DHT22;7289;50.706;4.992;2023-12-20T04:07:40;5.20;99.90
14409;DHT22;7289;50.706;4.992;2023-12-20T04:10:09;5.10;99.90
14409;DHT22;7289;50.706;4.992;2023-12-20T04:12:37;5.10;99.90
14409;DHT22;7289;50.706;4.992;2023-12-20T04:15:06;5.10;99.90
14409;DHT22;7289;50.706;4.992;2023-12-20T04:17:37;5.10;99.90
14409;DHT22;7289;50.706;4.992;2023-12-20T04:20:06;5.10;99.90
14409;DHT22;7289;50.706;4.992;2023-12-20T04:22:37;5.10;99.90
14409;DHT22;7289;50.706;4.992;2023-12-20T04:25:05;5.10;99.90
14409;DHT22;7289;50.706;4.992;2023-12-20T04:27:34;5.10;99.90
14409;DHT22;7289;50.706;4.992;2023-12-20T04:30:03;5.10;99.90
14409;DHT22;7289;50.706;4.992;2023-12-20T04:32:31;5.10;99.90
14409;DHT22;7289;50.706;4.992;2023-12-20T04:35:00;5.20;99.90
14409;DHT22;7289;50.706;4.992;2023-12-20T04:37:28;5.30;99.90
14409;DHT22;7289;50.706;4.992;2023-12-20T04:39:58;5.40;99.90
14409;DHT22;7289;50.706;4.992;2023-12-20T04:42:26;5.50;99.90
14409;DHT22;7289;50.706;4.992;2023-12-20T04:44:55;5.50;99.90
14409;DHT22;7289;50.706;4.992;2023-12-20T04:47:23;5.60;99.90
14409;DHT22;7289;50.706;4.992;2023-12-20T04:49:51;5.70;99.90
14409;DHT22;7289;50.706;4.992;2023-12-20T04:52:20;5.70;99.90
14409;DHT22;7289;50.706;4.992;2023-12-20T04:54:48;5.70;99.90
14409;DHT22;7289;50.706;4.992;2023-12-20T04:57:18;5.60;99.90
14409;DHT22;7289;50.706;4.992;2023-12-20T04:59:47;5.50;99.90
14409;DHT22;7289;50.706;4.992;2023-12-20T05:02:15;5.40;99.90
14409;DHT22;7289;50.706;4.992;2023-12-20T05:04:44;5.40;99.90
14409;DHT22;7289;50.706;4.992;2023-12-20T05:07:12;5.30;99.90
14409;DHT22;7289;50.706;4.992;2023-12-20T05:09:41;5.30;99.90
14409;DHT22;7289;50.706;4.992;2023-12-20T05:12:09;5.20;99.90
14409;DHT22;7289;50.706;4.992;2023-12-20T05:14:39;5.20;99.90
14409;DHT22;7289;50.706;4.992;2023-12-20T05:17:07;5.20;99.90
14409;DHT22;7289;50.706;4.992;2023-12-20T05:19:36;5.30;99.90
14409;DHT22;7289;50.706;4.992;2023-12-20T05:22:05;5.30;99.90
14409;DHT22;7289;50.706;4.992;2023-12-20T05:24:33;5.20;99.90
14409;DHT22;7289;50.706;4.992;2023-12-20T05:27:01;5.20;99.90
14409;DHT22;7289;50.706;4.992;2023-12-20T05:29:30;5.20;99.90
14409;DHT22;7289;50.706;4.992;2023-12-20T05:32:00;5.20;99.90
14409;DHT22;7289;50.706;4.992;2023-12-20T05:34:28;5.30;99.90
14409;DHT22;7289;50.706;4.992;2023-12-20T05:36:57;5.30;99.90
14409;DHT22;7289;50.706;4.992;2023-12-20T05:39:26;5.20;99.90
14409;DHT22;7289;50.706;4.992;2023-12-20T05:41:54;5.20;99.90
14409;DHT22;7289;50.706;4.992;2023-12-20T05:44:23;5.20;99.90
14409;DHT22;7289;50.706;4.992;2023-12-20T05:46:51;5.30;99.90
14409;DHT22;7289;50.706;4.992;2023-12-20T05:49:20;5.30;99.90
14409;DHT22;7289;50.706;4.992;2023-12-20T05:51:49;5.30;99.90
14409;DHT22;7289;50.706;4.992;2023-12-20T05:54:18;5.30;99.90
14409;DHT22;7289;50.706;4.992;2023-12-20T05:56:46;5.30;99.90
14409;DHT22;7289;50.706;4.992;2023-12-20T05:59:15;5.30;99.90
14409;DHT22;7289;50.706;4.992;2023-12-20T06:01:43;5.30;99.90
14409;DHT22;7289;50.706;4.992;2023-12-20T06:04:11;5.30;99.90
14409;DHT22;7289;50.706;4.992;2023-12-20T06:06:42;5.20;99.90
14409;DHT22;7289;50.706;4.992;2023-12-20T06:09:11;5.20;99.90
14409;DHT22;7289;50.706;4.992;2023-12-20T06:11:39;5.10;99.90
14409;DHT22;7289;50.706;4.992;2023-12-20T06:14:08;5.10;99.90
14409;DHT22;7289;50.706;4.992;2023-12-20T06:16:36;5.10;99.90
14409;DHT22;7289;50.706;4.992;2023-12-20T06:19:04;5.10;99.90
14409;DHT22;7289;50.706;4.992;2023-12-20T06:21:33;5.00;99.90
14409;DHT22;7289;50.706;4.992;2023-12-20T06:24:03;5.00;99.90
14409;DHT22;7289;50.706;4.992;2023-12-20T06:26:32;5.00;99.90
14409;DHT22;7289;50.706;4.992;2023-12-20T06:29:00;5.00;99.90
14409;DHT22;7289;50.706;4.992;2023-12-20T06:31:28;5.00;99.90
14409;DHT22;7289;50.706;4.992;2023-12-20T06:33:57;5.00;99.90
14409;DHT22;7289;50.706;4.992;2023-12-20T06:36:27;5.00;99.90
14409;DHT22;7289;50.706;4.992;2023-12-20T06:38:55;4.90;99.90
14409;DHT22;7289;50.706;4.992;2023-12-20T06:41:25;5.00;99.90
14409;DHT22;7289;50.706;4.992;2023-12-20T06:43:54;5.00;99.90
14409;DHT22;7289;50.706;4.992;2023-12-20T06:46:22;5.00;99.90
14409;DHT22;7289;50.706;4.992;2023-12-20T06:48:51;5.00;99.90
14409;DHT22;7289;50.706;4.992;2023-12-20T06:51:19;5.00;99.90
14409;DHT22;7289;50.706;4.992;2023-12-20T06:53:47;5.10;99.90
14409;DHT22;7289;50.706;4.992;2023-12-20T06:56:16;5.10;99.90
14409;DHT22;7289;50.706;4.992;2023-12-20T06:58:47;5.10;99.90
14409;DHT22;7289;50.706;4.992;2023-12-20T07:01:16;5.10;99.90
14409;DHT22;7289;50.706;4.992;2023-12-20T07:03:45;5.10;99.90
14409;DHT22;7289;50.706;4.992;2023-12-20T07:06:14;5.10;99.90
14409;DHT22;7289;50.706;4.992;2023-12-20T07:08:44;5.10;99.90
14409;DHT22;7289;50.706;4.992;2023-12-20T07:11:13;5.10;99.90
14409;DHT22;7289;50.706;4.992;2023-12-20T07:13:41;5.10;99.90
14409;DHT22;7289;50.706;4.992;2023-12-20T07:16:11;5.10;99.90
14409;DHT22;7289;50.706;4.992;2023-12-20T07:18:40;5.10;99.90
14409;DHT22;7289;50.706;4.992;2023-12-20T07:21:08;5.10;99.90
14409;DHT22;7289;50.706;4.992;2023-12-20T07:23:37;5.00;99.90
14409;DHT22;7289;50.706;4.992;2023-12-20T07:26:05;5.10;99.90
14409;DHT22;7289;50.706;4.992;2023-12-20T07:28:34;5.10;99.90
14409;DHT22;7289;50.706;4.992;2023-12-20T07:31:02;5.10;99.90
14409;DHT22;7289;50.706;4.992;2023-12-20T07:33:33;5.10;99.90
14409;DHT22;7289;50.706;4.992;2023-12-20T07:36:06;5.00;99.90
14409;DHT22;7289;50.706;4.992;2023-12-20T07:38:35;5.00;99.90
14409;DHT22;7289;50.706;4.992;2023-12-20T07:41:03;4.90;99.90
14409;DHT22;7289;50.706;4.992;2023-12-20T07:43:32;4.90;99.90
14409;DHT22;7289;50.706;4.992;2023-12-20T07:46:04;4.90;99.90
14409;DHT22;7289;50.706;4.992;2023-12-20T07:48:35;4.90;99.90
14409;DHT22;7289;50.706;4.992;2023-12-20T07:51:04;4.90;99.90
14409;DHT22;7289;50.706;4.992;2023-12-20T07:53:34;4.90;99.90
14409;DHT22;7289;50.706;4.992;2023-12-20T07:56:13;4.90;99.90
14409;DHT22;7289;50.706;4.992;2023-12-20T07:58:42;5.00;99.90
14409;DHT22;7289;50.706;4.992;2023-12-20T08:01:19;5.10;99.90
14409;DHT22;7289;50.706;4.992;2023-12-20T08:03:50;5.10;99.90
14409;DHT22;7289;50.706;4.992;2023-12-20T08:06:19;5.00;99.90
14409;DHT22;7289;50.706;4.992;2023-12-20T08:08:48;5.00;99.90
14409;DHT22;7289;50.706;4.992;2023-12-20T08:11:28;5.00;99.90
14409;DHT22;7289;50.706;4.992;2023-12-20T08:13:56;5.00;99.90
14409;DHT22;7289;50.706;4.992;2023-12-20T08:16:25;4.90;99.90
14409;DHT22;7289;50.706;4.992;2023-12-20T08:18:55;5.00;99.90
14409;DHT22;7289;50.706;4.992;2023-12-20T08:21:23;5.00;99.90
14409;DHT22;7289;50.706;4.992;2023-12-20T08:23:52;5.00;99.90
14409;DHT22;7289;50.706;4.992;2023-12-20T08:26:20;5.00;99.90
14409;DHT22;7289;50.706;4.992;2023-12-20T08:28:50;5.10;99.90
14409;DHT22;7289;50.706;4.992;2023-12-20T08:31:19;5.10;99.90
14409;DHT22;7289;50.706;4.992;2023-12-20T08:33:48;5.10;99.90
14409;DHT22;7289;50.706;4.992;2023-12-20T08:36:19;5.00;99.90
14409;DHT22;7289;50.706;4.992;2023-12-20T08:38:48;5.00;99.90
14409;DHT22;7289;50.706;4.992;2023-12-20T08:41:16;5.10;99.90
14409;DHT22;7289;50.706;4.992;2023-12-20T08:43:45;5.00;99.90
14409;DHT22;7289;50.706;4.992;2023-12-20T08:46:14;5.00;99.90
14409;DHT22;7289;50.706;4.992;2023-12-20T08:48:43;5.00;99.90
14409;DHT22;7289;50.706;4.992;2023-12-20T08:51:13;5.00;99.90
14409;DHT22;7289;50.706;4.992;2023-12-20T08:53:43;5.10;99.90
14409;DHT22;7289;50.706;4.992;2023-12-20T08:56:13;5.10;99.90
14409;DHT22;7289;50.706;4.992;2023-12-20T08:58:42;5.10;99.90
14409;DHT22;7289;50.706;4.992;2023-12-20T09:01:10;5.20;99.90
14409;DHT22;7289;50.706;4.992;2023-12-20T09:03:39;5.20;99.90
14409;DHT22;7289;50.706;4.992;2023-12-20T09:06:08;5.30;99.90
14409;DHT22;7289;50.706;4.992;2023-12-20T09:08:36;5.30;99.90
14409;DHT22;7289;50.706;4.992;2023-12-20T09:11:06;5.40;99.90
14409;DHT22;7289;50.706;4.992;2023-12-20T09:13:35;5.40;99.90
14409;DHT22;7289;50.706;4.992;2023-12-20T09:16:03;5.50;99.90
14409;DHT22;7289;50.706;4.992;2023-12-20T09:18:32;5.50;99.90
14409;DHT22;7289;50.706;4.992;2023-12-20T09:21:01;5.60;99.90
14409;DHT22;7289;50.706;4.992;2023-12-20T09:23:29;5.60;99.90
14409;DHT22;7289;50.706;4.992;2023-12-20T09:25:57;5.70;99.90
14409;DHT22;7289;50.706;4.992;2023-12-20T09:28:27;5.70;99.90
14409;DHT22;7289;50.706;4.992;2023-12-20T09:30:56;5.70;99.90
14409;DHT22;7289;50.706;4.992;2023-12-20T09:33:24;5.80;99.90
14409;DHT22;7289;50.706;4.992;2023-12-20T09:35:53;5.90;99.90
14409;DHT22;7289;50.706;4.992;2023-12-20T09:38:22;5.80;99.90
14409;DHT22;7289;50.706;4.992;2023-12-20T09:40:50;5.80;99.90
14409;DHT22;7289;50.706;4.992;2023-12-20T09:43:20;5.80;99.90
14409;DHT22;7289;50.706;4.992;2023-12-20T09:45:53;5.80;99.90
14409;DHT22;7289;50.706;4.992;2023-12-20T09:48:21;5.80;99.90
14409;DHT22;7289;50.706;4.992;2023-12-20T09:50:50;5.80;99.90
14409;DHT22;7289;50.706;4.992;2023-12-20T09:53:21;5.80;99.90
14409;DHT22;7289;50.706;4.992;2023-12-20T09:55:58;5.80;99.90
14409;DHT22;7289;50.706;4.992;2023-12-20T09:58:27;5.70;99.90
14409;DHT22;7289;50.706;4.992;2023-12-20T10:00:57;5.70;99.90
14409;DHT22;7289;50.706;4.992;2023-12-20T10:03:26;5.80;99.90
14409;DHT22;7289;50.706;4.992;2023-12-20T10:05:56;5.90;99.90
14409;DHT22;7289;50.706;4.992;2023-12-20T10:08:26;6.00;99.90
14409;DHT22;7289;50.706;4.992;2023-12-20T10:10:54;6.10;99.90
14409;DHT22;7289;50.706;4.992;2023-12-20T10:13:25;6.30;99.90
14409;DHT22;7289;50.706;4.992;2023-12-20T10:15:56;6.30;99.90
14409;DHT22;7289;50.706;4.992;2023-12-20T10:18:25;6.40;99.90
14409;DHT22;7289;50.706;4.992;2023-12-20T10:21:06;6.50;99.90
14409;DHT22;7289;50.706;4.992;2023-12-20T10:23:34;6.50;99.90
14409;DHT22;7289;50.706;4.992;2023-12-20T10:26:03;6.60;99.90
14409;DHT22;7289;50.706;4.992;2023-12-20T10:28:33;6.70;99.90
14409;DHT22;7289;50.706;4.992;2023-12-20T10:31:04;6.90;99.90
14409;DHT22;7289;50.706;4.992;2023-12-20T10:33:32;7.10;99.90
14409;DHT22;7289;50.706;4.992;2023-12-20T10:36:01;7.40;99.90
14409;DHT22;7289;50.706;4.992;2023-12-20T10:38:30;7.50;99.90
14409;DHT22;7289;50.706;4.992;2023-12-20T10:40:59;7.60;99.90
14409;DHT22;7289;50.706;4.992;2023-12-20T10:43:30;7.70;99.90
14409;DHT22;7289;50.706;4.992;2023-12-20T10:46:00;7.90;99.90
14409;DHT22;7289;50.706;4.992;2023-12-20T10:48:32;8.00;99.90
14409;DHT22;7289;50.706;4.992;2023-12-20T10:51:04;8.00;99.90
14409;DHT22;7289;50.706;4.992;2023-12-20T10:53:33;8.00;99.90
14409;DHT22;7289;50.706;4.992;2023-12-20T10:56:05;8.00;99.90
14409;DHT22;7289;50.706;4.992;2023-12-20T10:58:34;8.10;99.90
14409;DHT22;7289;50.706;4.992;2023-12-20T11:01:05;8.10;99.90
14409;DHT22;7289;50.706;4.992;2023-12-20T11:03:36;8.20;99.90
14409;DHT22;7289;50.706;4.992;2023-12-20T11:06:10;8.20;99.90
14409;DHT22;7289;50.706;4.992;2023-12-20T11:08:47;8.30;99.90
14409;DHT22;7289;50.706;4.992;2023-12-20T11:11:23;8.20;99.90
14409;DHT22;7289;50.706;4.992;2023-12-20T11:13:58;8.30;99.90
14409;DHT22;7289;50.706;4.992;2023-12-20T11:16:27;8.40;99.90
14409;DHT22;7289;50.706;4.992;2023-12-20T11:19:12;8.50;99.90
14409;DHT22;7289;50.706;4.992;2023-12-20T11:21:43;8.60;99.90
14409;DHT22;7289;50.706;4.992;2023-12-20T11:24:15;8.60;99.90
14409;DHT22;7289;50.706;4.992;2023-12-20T11:26:47;8.80;99.90
14409;DHT22;7289;50.706;4.992;2023-12-20T11:29:32;8.70;99.90
14409;DHT22;7289;50.706;4.992;2023-12-20T11:32:02;8.60;99.90
14409;DHT22;7289;50.706;4.992;2023-12-20T11:34:33;8.60;99.90
14409;DHT22;7289;50.706;4.992;2023-12-20T11:37:04;8.70;99.90
14409;DHT22;7289;50.706;4.992;2023-12-20T11:39:32;8.70;99.90
14409;DHT22;7289;50.706;4.992;2023-12-20T11:42:04;8.60;99.90
14409;DHT22;7289;50.706;4.992;2023-12-20T11:44:36;8.60;99.90
14409;DHT22;7289;50.706;4.992;2023-12-20T11:47:04;8.60;99.90
14409;DHT22;7289;50.706;4.992;2023-12-20T11:49:34;8.60;99.90
14409;DHT22;7289;50.706;4.992;2023-12-20T11:52:03;8.60;99.90
14409;DHT22;7289;50.706;4.992;2023-12-20T11:54:32;8.60;99.90
14409;DHT22;7289;50.706;4.992;2023-12-20T11:57:00;8.60;99.90
14409;DHT22;7289;50.706;4.992;2023-12-20T11:59:29;8.70;99.90
14409;DHT22;7289;50.706;4.992;2023-12-20T12:01:58;8.70;99.90
14409;DHT22;7289;50.706;4.992;2023-12-20T12:04:28;8.70;99.90
14409;DHT22;7289;50.706;4.992;2023-12-20T12:06:58;8.70;99.90
14409;DHT22;7289;50.706;4.992;2023-12-20T12:09:27;8.80;99.90
14409;DHT22;7289;50.706;4.992;2023-12-20T12:11:55;8.90;99.90
14409;DHT22;7289;50.706;4.992;2023-12-20T12:14:24;9.00;99.90
14409;DHT22;7289;50.706;4.992;2023-12-20T12:16:53;9.10;99.90
14409;DHT22;7289;50.706;4.992;2023-12-20T12:19:22;9.00;99.90
14409;DHT22;7289;50.706;4.992;2023-12-20T12:21:50;9.00;99.90
14409;DHT22;7289;50.706;4.992;2023-12-20T12:24:21;9.00;99.90
14409;DHT22;7289;50.706;4.992;2023-12-20T12:26:50;9.00;99.90
14409;DHT22;7289;50.706;4.992;2023-12-20T12:29:19;8.80;99.90
14409;DHT22;7289;50.706;4.992;2023-12-20T12:31:47;8.80;99.90
14409;DHT22;7289;50.706;4.992;2023-12-20T12:34:17;8.70;99.90
14409;DHT22;7289;50.706;4.992;2023-12-20T12:36:46;8.80;99.90
14409;DHT22;7289;50.706;4.992;2023-12-20T12:39:17;8.80;99.90
14409;DHT22;7289;50.706;4.992;2023-12-20T12:41:47;8.70;99.90
14409;DHT22;7289;50.706;4.992;2023-12-20T12:44:15;8.60;99.90
14409;DHT22;7289;50.706;4.992;2023-12-20T12:46:45;8.70;99.90
14409;DHT22;7289;50.706;4.992;2023-12-20T12:49:13;8.70;99.90
14409;DHT22;7289;50.706;4.992;2023-12-20T12:51:42;8.70;99.90
14409;DHT22;7289;50.706;4.992;2023-12-20T12:54:12;8.70;99.90
14409;DHT22;7289;50.706;4.992;2023-12-20T12:56:43;8.70;99.90
14409;DHT22;7289;50.706;4.992;2023-12-20T12:59:13;8.70;99.90
14409;DHT22;7289;50.706;4.992;2023-12-20T13:01:42;8.90;99.90
14409;DHT22;7289;50.706;4.992;2023-12-20T13:04:10;8.90;99.90
14409;DHT22;7289;50.706;4.992;2023-12-20T13:06:39;8.90;99.90
14409;DHT22;7289;50.706;4.992;2023-12-20T13:09:08;9.00;99.90
14409;DHT22;7289;50.706;4.992;2023-12-20T13:11:37;9.00;99.90
14409;DHT22;7289;50.706;4.992;2023-12-20T13:14:06;9.00;99.90
14409;DHT22;7289;50.706;4.992;2023-12-20T13:16:39;9.00;99.90
14409;DHT22;7289;50.706;4.992;2023-12-20T13:19:07;8.90;99.90
14409;DHT22;7289;50.706;4.992;2023-12-20T13:21:37;8.90;99.90
14409;DHT22;7289;50.706;4.992;2023-12-20T13:24:07;9.00;99.90
14409;DHT22;7289;50.706;4.992;2023-12-20T13:26:35;9.00;99.90
14409;DHT22;7289;50.706;4.992;2023-12-20T13:29:03;8.90;99.90
14409;DHT22;7289;50.706;4.992;2023-12-20T13:31:31;8.80;99.90
14409;DHT22;7289;50.706;4.992;2023-12-20T13:34:01;8.70;99.90
14409;DHT22;7289;50.706;4.992;2023-12-20T13:36:30;8.70;99.90
14409;DHT22;7289;50.706;4.992;2023-12-20T13:38:58;8.60;99.90
14409;DHT22;7289;50.706;4.992;2023-12-20T13:41:26;8.70;99.90
14409;DHT22;7289;50.706;4.992;2023-12-20T13:43:55;8.70;99.90
14409;DHT22;7289;50.706;4.992;2023-12-20T13:46:23;8.80;99.90
14409;DHT22;7289;50.706;4.992;2023-12-20T13:48:51;8.70;99.90
14409;DHT22;7289;50.706;4.992;2023-12-20T13:51:21;8.70;99.90
14409;DHT22;7289;50.706;4.992;2023-12-20T13:53:50;8.80;99.90
14409;DHT22;7289;50.706;4.992;2023-12-20T13:56:18;8.90;99.90
14409;DHT22;7289;50.706;4.992;2023-12-20T13:58:47;8.90;99.90
14409;DHT22;7289;50.706;4.992;2023-12-20T14:01:15;8.80;99.90
14409;DHT22;7289;50.706;4.992;2023-12-20T14:03:44;8.80;99.90
14409;DHT22;7289;50.706;4.992;2023-12-20T14:06:12;8.90;99.90
14409;DHT22;7289;50.706;4.992;2023-12-20T14:08:43;8.80;99.90
14409;DHT22;7289;50.706;4.992;2023-12-20T14:11:12;8.90;99.90
14409;DHT22;7289;50.706;4.992;2023-12-20T14:13:43;8.90;99.90
14409;DHT22;7289;50.706;4.992;2023-12-20T14:16:11;8.90;99.90
14409;DHT22;7289;50.706;4.992;2023-12-20T14:18:39;9.00;99.90
14409;DHT22;7289;50.706;4.992;2023-12-20T14:21:08;8.90;99.90
14409;DHT22;7289;50.706;4.992;2023-12-20T14:23:37;8.80;99.90
14409;DHT22;7289;50.706;4.992;2023-12-20T14:26:07;8.80;99.90
14409;DHT22;7289;50.706;4.992;2023-12-20T14:28:41;8.70;99.90
14409;DHT22;7289;50.706;4.992;2023-12-20T14:31:09;8.70;99.90
14409;DHT22;7289;50.706;4.992;2023-12-20T14:33:39;8.70;99.90
14409;DHT22;7289;50.706;4.992;2023-12-20T14:36:09;8.70;99.90
14409;DHT22;7289;50.706;4.992;2023-12-20T14:38:37;8.70;99.90
14409;DHT22;7289;50.706;4.992;2023-12-20T14:41:08;8.80;99.90
14409;DHT22;7289;50.706;4.992;2023-12-20T14:43:36;8.80;99.90
14409;DHT22;7289;50.706;4.992;2023-12-20T14:46:05;8.70;99.90
14409;DHT22;7289;50.706;4.992;2023-12-20T14:48:34;8.70;99.90
14409;DHT22;7289;50.706;4.992;2023-12-20T14:51:02;8.80;99.90
14409;DHT22;7289;50.706;4.992;2023-12-20T14:53:31;8.90;99.90
14409;DHT22;7289;50.706;4.992;2023-12-20T14:55:59;8.90;99.90
14409;DHT22;7289;50.706;4.992;2023-12-20T14:58:30;9.00;99.90
14409;DHT22;7289;50.706;4.992;2023-12-20T15:01:00;9.00;99.90
14409;DHT22;7289;50.706;4.992;2023-12-20T15:03:28;9.00;99.90
14409;DHT22;7289;50.706;4.992;2023-12-20T15:05:57;8.90;99.90
14409;DHT22;7289;50.706;4.992;2023-12-20T15:08:26;8.90;99.90
14409;DHT22;7289;50.706;4.992;2023-12-20T15:10:55;8.70;99.90
14409;DHT22;7289;50.706;4.992;2023-12-20T15:13:23;8.70;99.90
14409;DHT22;7289;50.706;4.992;2023-12-20T15:15:53;8.70;99.90
14409;DHT22;7289;50.706;4.992;2023-12-20T15:18:21;8.70;99.90
14409;DHT22;7289;50.706;4.992;2023-12-20T15:20:50;8.80;99.90
14409;DHT22;7289;50.706;4.992;2023-12-20T15:23:18;8.80;99.90
14409;DHT22;7289;50.706;4.992;2023-12-20T15:25:49;8.80;99.90
14409;DHT22;7289;50.706;4.992;2023-12-20T15:28:17;8.80;99.90
14409;DHT22;7289;50.706;4.992;2023-12-20T15:30:46;8.80;99.90
14409;DHT22;7289;50.706;4.992;2023-12-20T15:33:16;8.90;99.90
14409;DHT22;7289;50.706;4.992;2023-12-20T15:35:44;8.90;99.90
14409;DHT22;7289;50.706;4.992;2023-12-20T15:38:12;8.80;99.90
14409;DHT22;7289;50.706;4.992;2023-12-20T15:40:41;8.80;99.90
14409;DHT22;7289;50.706;4.992;2023-12-20T15:43:09;8.80;99.90
14409;DHT22;7289;50.706;4.992;2023-12-20T15:45:38;8.70;99.90
14409;DHT22;7289;50.706;4.992;2023-12-20T15:48:07;8.70;99.90
14409;DHT22;7289;50.706;4.992;2023-12-20T15:50:39;8.70;99.90
14409;DHT22;7289;50.706;4.992;2023-12-20T15:53:08;8.70;99.90
14409;DHT22;7289;50.706;4.992;2023-12-20T15:55:36;8.80;99.90
14409;DHT22;7289;50.706;4.992;2023-12-20T15:58:05;8.80;99.90
14409;DHT22;7289;50.706;4.992;2023-12-20T16:00:33;8.90;99.90
14409;DHT22;7289;50.706;4.992;2023-12-20T16:03:01;8.80;99.90
14409;DHT22;7289;50.706;4.992;2023-12-20T16:05:30;8.90;99.90
14409;DHT22;7289;50.706;4.992;2023-12-20T16:08:00;8.90;99.90
14409;DHT22;7289;50.706;4.992;2023-12-20T16:10:29;8.90;99.90
14409;DHT22;7289;50.706;4.992;2023-12-20T16:12:57;8.90;99.90
14409;DHT22;7289;50.706;4.992;2023-12-20T16:15:26;8.90;99.90